Time;durP1;ratioP1;P1;durP2;ratioP2;P2;SDS_P1;SDS_P2;PMS_P1;PMS_P2;Temp;Humidity;BMP_temperature;BMP_pressure;BME280_temperature;BME280_humidity;BME280_pressure;Samples;Min_cycle;Max_cycle;Signal;HPM_P1;HPM_P2
2022/11/11 00:00:34;;;;;;;12.02;7.38;;;;;;;;;;5011692;28;20096;-67
2022/11/11 00:03:00;;;;;;;10.57;7.90;;;;;;;;;;5012036;28;20088;-66
2022/11/11 00:05:27;;;;;;;11.60;7.20;;;;;;;;;;5011740;28;20046;-66
2022/11/11 00:07:58;;;;;;;13.63;8.18;;;;;;;;;;5011139;28;20564;-67
2022/11/11 00:10:25;;;;;;;11.70;7.65;;;;;;;;;;5011648;28;20116;-65
2022/11/11 00:12:52;;;;;;;9.98;7.50;;;;;;;;;;5010922;28;20089;-66
2022/11/11 00:15:19;;;;;;;11.10;7.25;;;;;;;;;;4992140;28;20086;-66
2022/11/11 00:26:09;;;;;;;11.07;7.85;;;;;;;;;;4992041;28;20054;-65
2022/11/11 00:28:56;;;;;;;10.32;7.13;;;;;;;;;;5007072;28;20054;-65
2022/11/11 00:31:22;;;;;;;10.63;7.50;;;;;;;;;;5003800;28;20042;-65
2022/11/11 00:33:51;;;;;;;9.70;6.78;;;;;;;;;;5011176;28;20089;-64
2022/11/11 00:36:18;;;;;;;10.32;6.80;;;;;;;;;;5011831;28;20140;-65
2022/11/11 00:38:45;;;;;;;14.25;7.70;;;;;;;;;;5011024;28;20061;-65
2022/11/11 00:41:14;;;;;;;10.98;7.40;;;;;;;;;;5011678;28;20101;-65
2022/11/11 00:43:40;;;;;;;11.93;7.95;;;;;;;;;;5011439;28;20050;-66
2022/11/11 00:51:38;;;;;;;8.88;6.88;;;;;;;;;;5011639;28;20045;-65
2022/11/11 00:54:05;;;;;;;12.18;7.97;;;;;;;;;;5026343;28;20056;-66
2022/11/11 00:56:32;;;;;;;11.52;7.55;;;;;;;;;;5013999;28;20077;-66
2022/11/11 00:58:58;;;;;;;10.70;7.05;;;;;;;;;;5005468;28;20046;-66
2022/11/11 01:01:25;;;;;;;11.55;8.15;;;;;;;;;;4995364;28;20074;-65
2022/11/11 01:03:52;;;;;;;10.27;7.60;;;;;;;;;;4995445;28;20050;-67
2022/11/11 01:06:18;;;;;;;9.95;7.00;;;;;;;;;;4995306;28;20057;-67
2022/11/11 01:08:45;;;;;;;10.90;7.28;;;;;;;;;;4994183;28;20138;-66
2022/11/11 01:11:17;;;;;;;10.85;7.13;;;;;;;;;;4994957;28;20085;-66
2022/11/11 01:13:44;;;;;;;8.60;6.70;;;;;;;;;;4995342;28;20050;-66
2022/11/11 01:16:18;;;;;;;7.60;6.72;;;;;;;;;;4994816;28;20097;-67
2022/11/11 01:18:44;;;;;;;9.63;6.72;;;;;;;;;;4994397;28;20054;-65
2022/11/11 01:21:16;;;;;;;7.55;6.28;;;;;;;;;;4994931;28;20133;-67
2022/11/11 01:23:44;;;;;;;9.73;6.72;;;;;;;;;;4994602;28;20592;-64
2022/11/11 01:26:22;;;;;;;7.75;6.32;;;;;;;;;;4994874;28;20055;-66
2022/11/11 01:28:56;;;;;;;9.30;7.70;;;;;;;;;;4998043;28;20050;-65
2022/11/11 01:31:24;;;;;;;7.07;6.38;;;;;;;;;;4994706;28;20052;-64
2022/11/11 01:33:51;;;;;;;8.07;7.00;;;;;;;;;;4994741;28;20458;-66
2022/11/11 01:36:22;;;;;;;9.68;7.57;;;;;;;;;;4994348;28;20046;-66
2022/11/11 01:38:50;;;;;;;8.95;6.97;;;;;;;;;;4993729;28;20109;-65
2022/11/11 01:41:32;;;;;;;9.93;7.05;;;;;;;;;;4994664;28;20653;-65
2022/11/11 01:44:11;;;;;;;8.77;6.43;;;;;;;;;;4994431;28;20112;-65
2022/11/11 01:46:42;;;;;;;7.63;6.40;;;;;;;;;;4994392;28;20054;-65
2022/11/11 01:49:24;;;;;;;8.00;6.53;;;;;;;;;;4992530;28;20482;-66
2022/11/11 01:51:53;;;;;;;13.73;7.50;;;;;;;;;;4992702;28;20042;-66
2022/11/11 01:54:23;;;;;;;8.32;6.88;;;;;;;;;;4993180;28;20058;-65
2022/11/11 01:56:52;;;;;;;7.68;6.03;;;;;;;;;;5006928;28;20054;-66
2022/11/11 01:59:19;;;;;;;8.63;6.22;;;;;;;;;;5027683;28;20133;-66
2022/11/11 02:01:45;;;;;;;8.40;6.43;;;;;;;;;;5012750;28;20050;-65
2022/11/11 02:07:00;;;;;;;8.93;6.05;;;;;;;;;;5012188;28;20571;-66
2022/11/11 02:09:27;;;;;;;8.38;6.97;;;;;;;;;;5011182;28;20052;-66
2022/11/11 02:14:42;;;;;;;8.73;7.05;;;;;;;;;;4992649;28;20069;-66
2022/11/11 02:17:12;;;;;;;8.07;6.20;;;;;;;;;;4976779;28;20053;-66
2022/11/11 02:19:45;;;;;;;9.50;6.97;;;;;;;;;;4991919;28;20410;-65
2022/11/11 02:22:15;;;;;;;9.57;6.63;;;;;;;;;;4993467;28;20068;-64
2022/11/11 02:24:42;;;;;;;8.60;6.85;;;;;;;;;;4992757;28;20466;-64
2022/11/11 02:27:10;;;;;;;8.65;6.45;;;;;;;;;;4992635;28;20061;-65
2022/11/11 02:29:37;;;;;;;8.70;6.63;;;;;;;;;;4975488;28;20050;-65
2022/11/11 02:32:04;;;;;;;8.95;5.80;;;;;;;;;;4993481;28;20494;-64
2022/11/11 02:34:32;;;;;;;7.63;6.80;;;;;;;;;;4993428;28;20414;-65
2022/11/11 02:36:59;;;;;;;10.48;6.50;;;;;;;;;;4993447;28;20461;-64
2022/11/11 02:39:25;;;;;;;6.63;5.95;;;;;;;;;;5010350;28;20056;-64
2022/11/11 02:42:13;;;;;;;7.40;6.20;;;;;;;;;;5025690;28;20137;-65
2022/11/11 02:44:40;;;;;;;6.55;5.93;;;;;;;;;;5011585;28;20129;-64
2022/11/11 02:47:07;;;;;;;7.55;6.75;;;;;;;;;;5012789;28;20057;-64
2022/11/11 02:49:33;;;;;;;9.40;6.68;;;;;;;;;;5011798;28;20045;-64
2022/11/11 02:52:00;;;;;;;14.63;8.13;;;;;;;;;;5005767;28;20122;-64
2022/11/11 02:54:27;;;;;;;8.32;7.07;;;;;;;;;;4993227;28;20050;-64
2022/11/11 02:57:06;;;;;;;8.02;6.65;;;;;;;;;;4992907;28;20055;-64
2022/11/11 02:59:34;;;;;;;11.88;7.13;;;;;;;;;;4992239;28;20050;-65
2022/11/11 03:02:01;;;;;;;10.27;6.60;;;;;;;;;;4993232;28;20077;-64
2022/11/11 03:04:28;;;;;;;9.18;6.80;;;;;;;;;;4993152;28;20085;-64
2022/11/11 03:06:55;;;;;;;8.90;6.65;;;;;;;;;;5008133;28;20092;-64
2022/11/11 03:09:22;;;;;;;7.80;6.20;;;;;;;;;;5011556;28;20045;-65
2022/11/11 03:11:48;;;;;;;7.55;6.53;;;;;;;;;;5012280;28;20049;-65
2022/11/11 03:14:15;;;;;;;7.85;6.45;;;;;;;;;;5012725;28;20513;-64
2022/11/11 03:19:28;;;;;;;7.95;6.82;;;;;;;;;;5011118;28;20136;-66
2022/11/11 03:21:54;;;;;;;7.50;6.10;;;;;;;;;;5011478;28;20062;-64
2022/11/11 03:27:25;;;;;;;8.65;6.95;;;;;;;;;;5009552;28;20046;-64
2022/11/11 03:29:52;;;;;;;9.00;6.57;;;;;;;;;;5011466;28;20054;-64
2022/11/11 03:32:19;;;;;;;11.02;7.72;;;;;;;;;;5011778;28;20091;-66
2022/11/11 03:34:45;;;;;;;10.30;7.18;;;;;;;;;;5001180;28;20422;-66
2022/11/11 03:39:57;;;;;;;9.35;7.18;;;;;;;;;;4994596;28;20109;-63
2022/11/11 03:42:23;;;;;;;7.60;6.00;;;;;;;;;;4992573;28;20046;-64
2022/11/11 03:44:50;;;;;;;6.88;6.13;;;;;;;;;;4992462;28;20130;-65
2022/11/11 03:47:16;;;;;;;7.32;6.35;;;;;;;;;;4992708;28;20394;-65
2022/11/11 03:49:46;;;;;;;7.25;6.28;;;;;;;;;;4992434;28;20116;-64
2022/11/11 03:52:13;;;;;;;8.15;6.28;;;;;;;;;;4992537;28;20058;-65
2022/11/11 03:54:40;;;;;;;10.15;6.60;;;;;;;;;;5007073;28;20103;-63
2022/11/11 03:57:40;;;;;;;7.60;6.70;;;;;;;;;;5011794;28;20452;-63
2022/11/11 03:59:59;;;;;;;7.97;6.95;;;;;;;;;;5011781;28;20050;-64
2022/11/11 04:10:42;;;;;;;9.07;6.72;;;;;;;;;;5051396;28;20049;-68
2022/11/11 04:16:05;;;;;;;9.43;8.15;;;;;;;;;;5031789;28;20049;-68
2022/11/11 04:26:49;;;;;;;9.70;7.82;;;;;;;;;;5031660;28;20077;-68
2022/11/11 04:29:28;;;;;;;9.75;7.05;;;;;;;;;;5030783;28;20053;-67
2022/11/11 04:34:50;;;;;;;9.02;7.60;;;;;;;;;;5027068;28;20053;-68
2022/11/11 04:37:17;;;;;;;9.25;7.35;;;;;;;;;;5015605;28;20049;-68
2022/11/11 04:42:31;;;;;;;9.40;6.93;;;;;;;;;;5015721;28;20185;-68
2022/11/11 04:48:06;;;;;;;8.95;6.88;;;;;;;;;;5005889;28;20497;-68
2022/11/11 04:50:40;;;;;;;10.52;7.93;;;;;;;;;;4978319;28;20566;-69
2022/11/11 04:53:13;;;;;;;9.57;7.45;;;;;;;;;;4995625;28;20050;-68
2022/11/11 04:58:31;;;;;;;11.93;7.60;;;;;;;;;;5006539;28;20054;-67
2022/11/11 05:00:58;;;;;;;8.27;7.28;;;;;;;;;;5014428;28;20046;-68
2022/11/11 05:03:25;;;;;;;10.77;7.88;;;;;;;;;;5014817;28;20050;-68
2022/11/11 05:08:54;;;;;;;10.85;7.75;;;;;;;;;;5000499;28;20046;-67
2022/11/11 05:11:25;;;;;;;11.90;8.40;;;;;;;;;;5015301;28;20053;-67
2022/11/11 05:22:29;;;;;;;11.13;8.27;;;;;;;;;;5014830;28;20049;-68
2022/11/11 05:27:41;;;;;;;10.50;8.07;;;;;;;;;;5014214;28;20073;-68
2022/11/11 05:30:10;;;;;;;10.05;7.70;;;;;;;;;;5014895;28;20046;-68
2022/11/11 05:32:37;;;;;;;9.82;7.88;;;;;;;;;;5014560;28;20069;-69
2022/11/11 05:35:05;;;;;;;10.82;7.50;;;;;;;;;;5014552;28;20054;-68
2022/11/11 05:37:31;;;;;;;10.07;7.78;;;;;;;;;;5014436;28;20049;-68
2022/11/11 05:39:58;;;;;;;8.15;7.13;;;;;;;;;;5013885;28;20077;-68
2022/11/11 05:42:25;;;;;;;8.85;7.22;;;;;;;;;;5014197;28;20046;-68
2022/11/11 05:44:51;;;;;;;10.85;8.48;;;;;;;;;;5014215;28;20161;-69
2022/11/11 05:47:18;;;;;;;13.98;9.48;;;;;;;;;;5014336;28;20119;-69
2022/11/11 05:49:44;;;;;;;14.27;9.55;;;;;;;;;;5014026;28;20053;-69
2022/11/11 05:52:12;;;;;;;11.65;8.43;;;;;;;;;;5014064;28;20077;-69
2022/11/11 05:54:39;;;;;;;10.10;7.50;;;;;;;;;;5014036;28;20469;-69
2022/11/11 05:57:05;;;;;;;10.50;7.43;;;;;;;;;;5003335;28;20082;-68
2022/11/11 05:59:32;;;;;;;8.80;6.97;;;;;;;;;;4994056;28;20046;-68
2022/11/11 06:01:59;;;;;;;8.63;6.40;;;;;;;;;;4994462;28;20046;-68
2022/11/11 06:04:26;;;;;;;11.60;7.30;;;;;;;;;;5013545;28;20061;-68
2022/11/11 06:06:53;;;;;;;10.18;7.57;;;;;;;;;;5005195;28;20054;-68
2022/11/11 06:09:19;;;;;;;9.43;7.43;;;;;;;;;;4993886;28;20077;-68
2022/11/11 06:11:46;;;;;;;10.52;7.35;;;;;;;;;;4994189;28;20058;-67
2022/11/11 06:14:13;;;;;;;8.75;6.60;;;;;;;;;;4994328;28;20046;-68
2022/11/11 06:16:39;;;;;;;10.55;7.78;;;;;;;;;;4999831;28;20516;-68
2022/11/11 06:19:06;;;;;;;8.27;6.47;;;;;;;;;;5013487;28;20500;-68
2022/11/11 06:21:55;;;;;;;10.48;7.68;;;;;;;;;;5013711;28;20134;-67
2022/11/11 06:24:19;;;;;;;11.00;7.28;;;;;;;;;;5013320;28;20045;-67
2022/11/11 06:26:51;;;;;;;10.18;7.97;;;;;;;;;;5013812;28;20152;-67
2022/11/11 06:29:18;;;;;;;10.85;7.90;;;;;;;;;;5011694;28;20073;-68
2022/11/11 06:31:44;;;;;;;12.68;7.53;;;;;;;;;;5013233;28;20104;-68
2022/11/11 06:34:11;;;;;;;11.98;7.68;;;;;;;;;;5013060;28;20050;-68
2022/11/11 06:36:38;;;;;;;14.68;7.93;;;;;;;;;;5013184;28;20112;-68
2022/11/11 06:39:04;;;;;;;9.90;7.47;;;;;;;;;;5012581;28;20050;-67
2022/11/11 06:41:31;;;;;;;13.35;8.32;;;;;;;;;;5013188;28;20562;-68
2022/11/11 06:43:58;;;;;;;11.05;8.15;;;;;;;;;;5013194;28;20493;-67
2022/11/11 06:46:25;;;;;;;10.50;8.05;;;;;;;;;;5012463;28;20104;-68
2022/11/11 06:48:52;;;;;;;12.73;8.32;;;;;;;;;;5011495;28;20459;-68
2022/11/11 06:51:18;;;;;;;13.30;8.65;;;;;;;;;;5012950;28;20046;-68
2022/11/11 06:53:45;;;;;;;10.10;7.70;;;;;;;;;;5012200;28;20463;-67
2022/11/11 06:56:12;;;;;;;11.60;7.57;;;;;;;;;;5011627;28;20096;-68
2022/11/11 06:58:38;;;;;;;10.60;8.40;;;;;;;;;;4975457;28;20061;-67
2022/11/11 07:01:06;;;;;;;10.38;7.50;;;;;;;;;;4993185;28;20076;-68
2022/11/11 07:03:33;;;;;;;12.35;7.78;;;;;;;;;;4993241;28;20472;-67
2022/11/11 07:06:01;;;;;;;13.18;7.90;;;;;;;;;;4993213;28;20054;-68
2022/11/11 07:08:28;;;;;;;13.40;8.38;;;;;;;;;;5008353;28;20100;-68
2022/11/11 07:10:54;;;;;;;9.85;8.30;;;;;;;;;;4992963;28;20046;-68
2022/11/11 07:13:21;;;;;;;11.77;8.15;;;;;;;;;;4993070;28;20046;-68
2022/11/11 07:15:48;;;;;;;10.98;7.78;;;;;;;;;;4992923;28;20050;-67
2022/11/11 07:18:14;;;;;;;14.05;7.63;;;;;;;;;;5009271;28;20127;-67
2022/11/11 07:20:41;;;;;;;13.10;7.75;;;;;;;;;;5012595;28;20049;-67
2022/11/11 07:23:08;;;;;;;14.07;8.82;;;;;;;;;;5012547;28;20045;-67
2022/11/11 07:25:34;;;;;;;10.32;8.13;;;;;;;;;;5012346;28;20054;-68
2022/11/11 07:28:01;;;;;;;9.60;6.95;;;;;;;;;;5011915;28;20477;-67
2022/11/11 07:30:28;;;;;;;9.38;7.32;;;;;;;;;;5012463;28;20572;-68
2022/11/11 07:32:54;;;;;;;11.15;7.15;;;;;;;;;;5012163;28;20046;-68
2022/11/11 07:35:22;;;;;;;11.25;7.35;;;;;;;;;;5012532;28;20054;-68
2022/11/11 07:37:48;;;;;;;10.27;7.32;;;;;;;;;;5009281;28;20049;-67
2022/11/11 07:40:17;;;;;;;13.50;7.65;;;;;;;;;;4992650;28;20053;-68
2022/11/11 07:42:44;;;;;;;9.30;7.63;;;;;;;;;;5009953;28;20493;-67
2022/11/11 07:45:11;;;;;;;10.18;7.90;;;;;;;;;;5010242;28;20124;-67
2022/11/11 07:47:38;;;;;;;10.55;7.10;;;;;;;;;;5009978;28;20057;-67
2022/11/11 07:50:06;;;;;;;10.68;7.03;;;;;;;;;;5009070;28;20567;-67
2022/11/11 07:52:35;;;;;;;10.27;6.72;;;;;;;;;;5010308;28;20050;-67
2022/11/11 07:55:03;;;;;;;7.10;6.32;;;;;;;;;;5010054;28;20053;-67
2022/11/11 07:57:30;;;;;;;9.25;6.53;;;;;;;;;;5009841;28;20084;-67
2022/11/11 07:59:57;;;;;;;10.80;7.35;;;;;;;;;;5009359;28;20112;-67
2022/11/11 08:02:23;;;;;;;9.65;7.00;;;;;;;;;;5009999;28;20092;-68
2022/11/11 08:04:50;;;;;;;9.60;7.28;;;;;;;;;;5011625;28;20085;-68
2022/11/11 08:07:22;;;;;;;8.80;6.80;;;;;;;;;;5013866;28;20073;-67
2022/11/11 08:09:50;;;;;;;11.10;6.90;;;;;;;;;;5013488;28;20108;-67
2022/11/11 08:15:03;;;;;;;11.15;6.82;;;;;;;;;;5013935;28;20045;-67
2022/11/11 08:17:38;;;;;;;13.40;7.15;;;;;;;;;;4996338;28;20082;-67
2022/11/11 08:20:09;;;;;;;9.07;6.83;;;;;;;;;;5012999;28;20427;-67
2022/11/11 08:22:39;;;;;;;10.73;6.90;;;;;;;;;;5013657;28;20561;-66
2022/11/11 08:25:08;;;;;;;8.52;6.97;;;;;;;;;;5014058;28;20054;-67
2022/11/11 08:27:35;;;;;;;9.18;6.28;;;;;;;;;;4996582;28;20064;-67
2022/11/11 08:30:04;;;;;;;12.10;7.13;;;;;;;;;;5012616;28;20501;-67
2022/11/11 08:32:30;;;;;;;8.15;6.32;;;;;;;;;;5013686;28;20053;-67
2022/11/11 08:34:57;;;;;;;10.85;6.93;;;;;;;;;;5013586;28;20124;-68
2022/11/11 08:37:23;;;;;;;10.23;6.60;;;;;;;;;;4996085;28;20080;-68
2022/11/11 08:39:51;;;;;;;10.20;6.78;;;;;;;;;;5013234;28;20062;-68
2022/11/11 08:42:18;;;;;;;11.32;7.07;;;;;;;;;;5013116;28;20057;-69
2022/11/11 08:44:44;;;;;;;10.25;7.15;;;;;;;;;;5013710;28;20521;-69
2022/11/11 08:47:11;;;;;;;10.80;6.88;;;;;;;;;;5013776;28;20467;-68
2022/11/11 08:49:37;;;;;;;10.77;7.20;;;;;;;;;;5012638;28;20054;-68
2022/11/11 08:52:04;;;;;;;8.07;7.22;;;;;;;;;;4996059;28;20050;-68
2022/11/11 08:54:32;;;;;;;9.23;6.70;;;;;;;;;;5013150;28;20046;-68
2022/11/11 08:56:58;;;;;;;7.95;6.43;;;;;;;;;;5013141;28;20045;-68
2022/11/11 08:59:25;;;;;;;10.18;6.38;;;;;;;;;;5016227;28;20050;-68
2022/11/11 09:01:52;;;;;;;8.88;7.47;;;;;;;;;;5036319;28;20030;-67
2022/11/11 09:04:18;;;;;;;7.90;7.10;;;;;;;;;;5036821;28;20073;-67
2022/11/11 09:07:06;;;;;;;9.57;6.55;;;;;;;;;;5036011;28;20046;-67
2022/11/11 09:09:34;;;;;;;7.63;6.68;;;;;;;;;;5036185;28;20045;-67
2022/11/11 09:12:00;;;;;;;12.00;6.32;;;;;;;;;;5034702;28;20084;-68
2022/11/11 09:14:27;;;;;;;9.50;6.40;;;;;;;;;;5027927;28;20100;-66
2022/11/11 09:16:54;;;;;;;7.93;6.60;;;;;;;;;;5036530;28;20057;-67
2022/11/11 09:19:20;;;;;;;8.85;6.72;;;;;;;;;;5033480;28;20073;-68
2022/11/11 09:21:49;;;;;;;8.50;6.18;;;;;;;;;;5019572;28;20427;-68
2022/11/11 09:24:15;;;;;;;8.15;6.65;;;;;;;;;;5020914;28;20050;-68
2022/11/11 09:26:42;;;;;;;6.90;5.68;;;;;;;;;;5037014;28;20034;-67
2022/11/11 09:29:09;;;;;;;9.68;5.72;;;;;;;;;;5038846;28;20045;-68
2022/11/11 09:31:35;;;;;;;9.13;6.43;;;;;;;;;;5038804;28;20034;-69
2022/11/11 09:34:11;;;;;;;7.05;5.63;;;;;;;;;;5039476;28;20113;-67
2022/11/11 09:36:38;;;;;;;9.63;6.15;;;;;;;;;;5039523;28;20056;-68
2022/11/11 09:39:04;;;;;;;9.57;4.82;;;;;;;;;;5039028;28;20069;-68
2022/11/11 09:42:04;;;;;;;7.90;4.63;;;;;;;;;;5039473;28;20045;-68
2022/11/11 09:44:41;;;;;;;8.57;5.10;;;;;;;;;;5022516;28;20090;-68
2022/11/11 09:47:40;;;;;;;6.93;4.90;;;;;;;;;;5038276;28;20041;-68
2022/11/11 09:50:17;;;;;;;9.45;5.50;;;;;;;;;;5010487;28;20443;-69
2022/11/11 09:53:02;;;;;;;8.10;4.93;;;;;;;;;;4981397;28;20058;-70
2022/11/11 09:55:37;;;;;;;8.80;4.70;;;;;;;;;;5014000;28;20412;-70
2022/11/11 09:58:05;;;;;;;8.32;5.18;;;;;;;;;;4996541;28;20057;-69
2022/11/11 10:00:36;;;;;;;7.20;4.65;;;;;;;;;;4996545;28;20054;-69
2022/11/11 10:03:09;;;;;;;5.70;4.50;;;;;;;;;;4997027;28;20049;-70
2022/11/11 10:05:42;;;;;;;5.97;4.80;;;;;;;;;;5049918;23;20045;-68
2022/11/11 10:08:15;;;;;;;8.27;4.47;;;;;;;;;;5015244;28;20053;-68
2022/11/11 10:10:49;;;;;;;8.85;4.40;;;;;;;;;;5033182;28;20065;-67
2022/11/11 10:13:35;;;;;;;10.63;4.47;;;;;;;;;;5015859;28;20049;-67
2022/11/11 10:16:10;;;;;;;10.82;5.03;;;;;;;;;;5015732;28;20126;-68
2022/11/11 10:18:43;;;;;;;6.55;4.28;;;;;;;;;;5012889;28;20057;-67
2022/11/11 10:21:13;;;;;;;4.47;3.55;;;;;;;;;;5013281;28;20255;-67
2022/11/11 10:23:40;;;;;;;4.75;3.90;;;;;;;;;;4996323;28;20098;-69
2022/11/11 10:26:15;;;;;;;4.65;3.42;;;;;;;;;;4996363;28;20492;-67
2022/11/11 10:28:42;;;;;;;5.03;4.20;;;;;;;;;;5017568;28;20057;-67
2022/11/11 10:31:13;;;;;;;6.22;4.32;;;;;;;;;;5052707;28;20045;-67
2022/11/11 10:33:51;;;;;;;8.68;4.13;;;;;;;;;;5018646;28;20488;-67
2022/11/11 10:36:19;;;;;;;7.65;5.13;;;;;;;;;;5033976;28;20177;-67
2022/11/11 10:38:49;;;;;;;6.30;4.25;;;;;;;;;;4998560;28;20053;-67
2022/11/11 10:41:34;;;;;;;5.25;3.55;;;;;;;;;;5014465;28;20050;-67
2022/11/11 10:44:00;;;;;;;6.82;3.80;;;;;;;;;;4998340;28;20088;-67
2022/11/11 10:46:31;;;;;;;6.97;3.70;;;;;;;;;;5015449;28;20234;-67
2022/11/11 10:49:11;;;;;;;6.63;3.80;;;;;;;;;;4998350;28;20085;-67
2022/11/11 10:51:41;;;;;;;;;;;;;;;;;;5015659;28;20052;-67
2022/11/11 10:54:16;;;;;;;4.63;3.78;;;;;;;;;;4998752;28;19975;-67
2022/11/11 10:56:59;;;;;;;5.82;3.50;;;;;;;;;;5015590;28;20111;-68
2022/11/11 10:59:30;;;;;;;3.87;3.20;;;;;;;;;;5032115;28;20508;-68
2022/11/11 11:02:20;;;;;;;4.15;3.08;;;;;;;;;;5018673;28;20095;-68
2022/11/11 11:04:48;;;;;;;4.20;3.28;;;;;;;;;;5034732;28;20076;-67
2022/11/11 11:07:38;;;;;;;5.97;3.45;;;;;;;;;;5034782;28;20106;-70
2022/11/11 11:10:07;;;;;;;5.85;3.30;;;;;;;;;;5014730;28;20049;-67
2022/11/11 11:12:45;;;;;;;5.00;2.85;;;;;;;;;;5015164;28;20077;-68
2022/11/11 11:15:22;;;;;;;4.40;3.00;;;;;;;;;;5032099;28;20542;-67
2022/11/11 11:18:14;;;;;;;3.38;2.70;;;;;;;;;;5014441;28;20108;-67
2022/11/11 11:20:57;;;;;;;4.25;2.60;;;;;;;;;;5031985;28;20049;-67
2022/11/11 11:23:36;;;;;;;;;;;;;;;;;;5033223;28;20053;-67
2022/11/11 11:26:03;;;;;;;3.40;2.80;;;;;;;;;;5032132;28;19928;-67
2022/11/11 11:28:30;;;;;;;4.60;2.40;;;;;;;;;;5031435;28;20054;-70
2022/11/11 11:31:05;;;;;;;4.75;3.03;;;;;;;;;;5043972;28;20048;-68
2022/11/11 11:34:01;;;;;;;5.55;2.90;;;;;;;;;;5034912;28;20091;-67
2022/11/11 11:36:28;;;;;;;4.35;2.80;;;;;;;;;;5000402;28;20414;-66
2022/11/11 11:38:55;;;;;;;4.18;3.22;;;;;;;;;;5021660;28;20041;-67
2022/11/11 11:41:36;;;;;;;7.55;3.00;;;;;;;;;;5017914;28;20089;-66
2022/11/11 11:44:03;;;;;;;5.28;3.20;;;;;;;;;;5020091;28;20105;-66
2022/11/11 11:46:39;;;;;;;5.00;2.80;;;;;;;;;;5014391;28;20054;-68
2022/11/11 11:49:21;;;;;;;4.53;2.83;;;;;;;;;;5001329;28;20143;-67
2022/11/11 11:52:17;;;;;;;7.68;2.83;;;;;;;;;;5096707;27;20391;-65
2022/11/11 11:54:52;;;;;;;5.30;2.58;;;;;;;;;;5085767;28;20532;-64
2022/11/11 11:57:35;;;;;;;4.60;2.10;;;;;;;;;;5081232;28;20177;-66
2022/11/11 12:00:03;;;;;;;4.07;2.67;;;;;;;;;;5081719;28;20433;-66
2022/11/11 12:02:44;;;;;;;4.72;2.60;;;;;;;;;;5085727;28;20494;-66
2022/11/11 12:05:43;;;;;;;5.10;2.38;;;;;;;;;;5083534;28;20468;-68
2022/11/11 12:08:19;;;;;;;4.60;2.25;;;;;;;;;;5082795;28;20109;-66
2022/11/11 12:10:50;;;;;;;4.05;2.38;;;;;;;;;;5082761;28;20066;-66
2022/11/11 12:13:32;;;;;;;3.92;2.50;;;;;;;;;;5086440;28;20055;-68
2022/11/11 12:16:37;;;;;;;4.40;2.05;;;;;;;;;;5081113;28;20375;-66
2022/11/11 12:19:41;;;;;;;3.50;2.10;;;;;;;;;;5082846;28;20052;-66
2022/11/11 12:22:38;;;;;;;4.55;2.03;;;;;;;;;;5082661;28;20056;-66
2022/11/11 12:25:35;;;;;;;3.15;1.77;;;;;;;;;;5084869;28;20060;-66
2022/11/11 12:28:28;;;;;;;3.13;1.98;;;;;;;;;;5079559;28;20498;-67
2022/11/11 12:31:13;;;;;;;4.35;2.28;;;;;;;;;;5082755;28;20048;-66
2022/11/11 12:33:58;;;;;;;4.43;2.47;;;;;;;;;;5084132;28;20422;-66
2022/11/11 12:36:48;;;;;;;2.78;1.70;;;;;;;;;;5085707;28;20094;-66
2022/11/11 12:39:43;;;;;;;3.42;1.85;;;;;;;;;;5090771;28;20048;-66
2022/11/11 12:42:32;;;;;;;2.47;1.58;;;;;;;;;;5083916;28;20109;-67
2022/11/11 12:45:17;;;;;;;2.63;2.03;;;;;;;;;;5083839;28;20450;-65
2022/11/11 12:48:29;;;;;;;3.05;1.40;;;;;;;;;;5065315;28;20044;-66
2022/11/11 12:51:08;;;;;;;3.22;1.40;;;;;;;;;;5084771;28;20040;-66
2022/11/11 12:53:50;;;;;;;3.17;1.77;;;;;;;;;;5081630;28;20121;-66
2022/11/11 12:56:22;;;;;;;3.90;1.60;;;;;;;;;;5079502;28;20479;-66
2022/11/11 12:59:09;;;;;;;4.45;1.85;;;;;;;;;;5084356;28;20044;-66
2022/11/11 13:01:42;;;;;;;2.50;1.27;;;;;;;;;;5080056;28;20067;-66
2022/11/11 13:04:42;;;;;;;2.35;1.40;;;;;;;;;;5065345;28;20059;-66
2022/11/11 13:07:46;;;;;;;3.33;1.52;;;;;;;;;;5069407;28;20052;-66
2022/11/11 13:10:26;;;;;;;4.20;1.70;;;;;;;;;;5072278;28;20103;-65
2022/11/11 13:13:17;;;;;;;4.20;1.63;;;;;;;;;;5044599;28;20048;-66
2022/11/11 13:15:44;;;;;;;5.65;1.77;;;;;;;;;;5065322;28;20094;-65
2022/11/11 13:18:14;;;;;;;6.65;2.08;;;;;;;;;;5070930;28;20135;-66
2022/11/11 13:20:57;;;;;;;2.65;1.60;;;;;;;;;;5070434;28;20537;-66
2022/11/11 13:23:24;;;;;;;3.90;2.17;;;;;;;;;;5059058;28;20513;-67
2022/11/11 13:25:56;;;;;;;4.13;1.50;;;;;;;;;;5069350;28;20067;-66
2022/11/11 13:28:38;;;;;;;2.63;1.45;;;;;;;;;;5069120;28;20097;-67
2022/11/11 13:31:29;;;;;;;3.45;1.60;;;;;;;;;;5043602;28;20053;-66
2022/11/11 13:33:57;;;;;;;3.92;1.70;;;;;;;;;;5070597;28;20117;-66
2022/11/11 13:36:26;;;;;;;3.03;1.70;;;;;;;;;;5070360;28;20048;-65
2022/11/11 13:38:57;;;;;;;5.55;2.20;;;;;;;;;;5069903;28;20078;-65
2022/11/11 13:41:31;;;;;;;3.13;1.60;;;;;;;;;;5068281;28;20098;-67
2022/11/11 13:43:59;;;;;;;2.30;1.63;;;;;;;;;;5071024;28;20048;-66
2022/11/11 13:46:43;;;;;;;4.25;1.90;;;;;;;;;;5070738;28;20049;-66
2022/11/11 13:49:36;;;;;;;3.25;1.63;;;;;;;;;;5067962;28;20476;-66
2022/11/11 13:52:47;;;;;;;4.68;1.83;;;;;;;;;;5071251;28;20498;-65
2022/11/11 13:55:40;;;;;;;2.30;1.80;;;;;;;;;;5065315;28;20098;-66
2022/11/11 13:58:16;;;;;;;3.38;1.88;;;;;;;;;;5068310;28;20049;-66
2022/11/11 14:00:42;;;;;;;4.22;2.13;;;;;;;;;;5069278;28;20066;-66
2022/11/11 14:03:30;;;;;;;4.05;2.20;;;;;;;;;;5069835;28;20049;-66
2022/11/11 14:06:15;;;;;;;6.82;1.70;;;;;;;;;;5062850;28;20056;-66
2022/11/11 14:08:44;;;;;;;4.05;1.92;;;;;;;;;;5071615;28;20071;-67
2022/11/11 14:11:23;;;;;;;3.20;1.80;;;;;;;;;;5070974;28;20044;-66
2022/11/11 14:13:50;;;;;;;5.10;1.60;;;;;;;;;;5078444;28;20456;-67
2022/11/11 14:16:35;;;;;;;1.90;1.70;;;;;;;;;;5067683;28;20538;-67
2022/11/11 14:19:20;;;;;;;3.97;2.20;;;;;;;;;;5067542;28;20048;-66
2022/11/11 14:21:56;;;;;;;4.65;2.33;;;;;;;;;;5069360;28;20037;-67
2022/11/11 14:24:38;;;;;;;4.43;1.98;;;;;;;;;;5059060;28;20084;-66
2022/11/11 14:27:08;;;;;;;4.80;2.10;;;;;;;;;;5069079;28;20083;-65
2022/11/11 14:29:50;;;;;;;4.45;2.33;;;;;;;;;;5069952;28;20294;-66
2022/11/11 14:32:48;;;;;;;2.50;2.03;;;;;;;;;;5065021;28;20311;-66
2022/11/11 14:35:26;;;;;;;3.25;2.17;;;;;;;;;;5061147;28;20663;-67
2022/11/11 14:38:04;;;;;;;4.00;1.98;;;;;;;;;;5062751;28;20080;-69
2022/11/11 14:40:32;;;;;;;4.57;2.13;;;;;;;;;;5068075;28;20052;-69
2022/11/11 14:42:59;;;;;;;4.80;1.92;;;;;;;;;;5069729;28;20056;-67
2022/11/11 14:45:29;;;;;;;4.15;1.83;;;;;;;;;;5069469;28;20040;-65
2022/11/11 14:47:56;;;;;;;3.45;2.00;;;;;;;;;;5069876;28;20118;-67
2022/11/11 14:50:32;;;;;;;3.03;1.77;;;;;;;;;;5061706;28;20574;-66
2022/11/11 14:53:18;;;;;;;2.70;1.83;;;;;;;;;;5067934;28;20075;-66
2022/11/11 14:55:51;;;;;;;3.63;1.80;;;;;;;;;;5068828;28;20699;-66
2022/11/11 14:58:24;;;;;;;2.28;1.85;;;;;;;;;;5051316;28;20125;-66
2022/11/11 15:01:15;;;;;;;4.10;1.90;;;;;;;;;;5067746;28;20045;-65
2022/11/11 15:03:48;;;;;;;4.25;2.00;;;;;;;;;;5067502;28;20128;-67
2022/11/11 15:06:34;;;;;;;3.08;2.10;;;;;;;;;;5070231;28;20052;-65
2022/11/11 15:09:02;;;;;;;3.55;2.35;;;;;;;;;;5066681;28;20072;-64
2022/11/11 15:11:49;;;;;;;4.40;2.38;;;;;;;;;;5067084;28;20044;-64
2022/11/11 15:14:25;;;;;;;2.35;1.98;;;;;;;;;;5085969;28;20525;-65
2022/11/11 15:17:02;;;;;;;3.60;1.70;;;;;;;;;;5068756;28;20052;-63
2022/11/11 15:19:29;;;;;;;2.60;2.05;;;;;;;;;;5063051;28;20082;-64
2022/11/11 15:22:03;;;;;;;4.63;2.17;;;;;;;;;;5070220;28;20048;-64
2022/11/11 15:24:46;;;;;;;2.70;2.17;;;;;;;;;;5068351;28;20779;-64
2022/11/11 15:27:31;;;;;;;3.20;2.05;;;;;;;;;;5046262;28;20083;-64
2022/11/11 15:30:13;;;;;;;4.30;2.13;;;;;;;;;;5061337;28;20506;-64
2022/11/11 15:33:03;;;;;;;3.03;1.83;;;;;;;;;;5065915;28;20076;-63
2022/11/11 15:35:41;;;;;;;2.92;1.88;;;;;;;;;;5067477;28;20507;-63
2022/11/11 15:38:10;;;;;;;6.72;2.40;;;;;;;;;;5069302;28;20063;-63
2022/11/11 15:40:44;;;;;;;6.60;2.33;;;;;;;;;;5068217;28;20048;-64
2022/11/11 15:43:22;;;;;;;6.82;3.38;;;;;;;;;;5061952;28;20056;-65
2022/11/11 15:45:54;;;;;;;5.32;2.58;;;;;;;;;;5058276;28;20052;-65
2022/11/11 15:48:23;;;;;;;3.85;2.40;;;;;;;;;;5043992;28;20084;-64
2022/11/11 15:50:50;;;;;;;3.63;2.33;;;;;;;;;;5061663;28;20098;-66
2022/11/11 15:53:24;;;;;;;2.15;1.90;;;;;;;;;;5057886;28;20496;-65
2022/11/11 15:55:56;;;;;;;3.83;2.45;;;;;;;;;;5063810;28;20056;-66
2022/11/11 15:58:30;;;;;;;4.55;2.33;;;;;;;;;;5058754;28;20780;-65
2022/11/11 16:01:05;;;;;;;3.28;2.53;;;;;;;;;;5062711;28;20132;-65
2022/11/11 16:03:41;;;;;;;3.83;2.53;;;;;;;;;;5064773;28;20154;-66
2022/11/11 16:06:10;;;;;;;3.95;2.58;;;;;;;;;;5066936;28;20060;-64
2022/11/11 16:08:40;;;;;;;4.72;2.60;;;;;;;;;;5048666;28;20056;-64
2022/11/11 16:11:12;;;;;;;7.10;3.90;;;;;;;;;;5051719;28;20242;-65
2022/11/11 16:13:41;;;;;;;5.88;4.05;;;;;;;;;;5041572;28;20045;-66
2022/11/11 16:16:25;;;;;;;7.05;4.13;;;;;;;;;;5057451;28;20059;-66
2022/11/11 16:18:56;;;;;;;6.78;3.58;;;;;;;;;;5052442;28;20153;-64
2022/11/11 16:21:33;;;;;;;4.78;3.50;;;;;;;;;;5049050;28;20519;-65
2022/11/11 16:24:00;;;;;;;6.38;3.97;;;;;;;;;;5055885;28;20049;-65
2022/11/11 16:26:27;;;;;;;3.28;2.97;;;;;;;;;;5047544;28;20459;-65
2022/11/11 16:28:54;;;;;;;7.25;4.20;;;;;;;;;;5058397;28;20049;-64